Time;durP1;ratioP1;P1;durP2;ratioP2;P2;SDS_P1;SDS_P2;PMS_P1;PMS_P2;Temp;Humidity;BMP_temperature;BMP_pressure;BME280_temperature;BME280_humidity;BME280_pressure;Samples;Min_cycle;Max_cycle;Signal;HPM_P1;HPM_P2
2022/05/06 00:01:27;;;;;;;24.27;15.13;;;9.00;99.90;;;;;;6178892;23;20103;-91
2022/05/06 03:43:00;;;;;;;21.20;12.43;;;;;;;;;;6113954;23;20285;-91
2022/05/06 03:45:58;;;;;;;18.65;12.18;;;;;;;;;;6056027;23;20321;-90
2022/05/06 04:14:19;;;;;;;33.00;18.17;;;;;;;;;;6026109;23;20033;-91
2022/05/06 04:49:19;;;;;;;;;;;;;;;;;;;;;
2022/05/06 04:51:51;;;;;;;46.45;20.33;;;;;;;;;;6153193;23;20108;-92
2022/05/06 07:59:53;;;;;;;42.95;26.25;;;;;;;;;;6176916;23;20044;-90
2022/05/06 08:20:32;;;;;;;39.33;24.88;;;;;;;;;;6179746;23;20434;-90
2022/05/06 08:23:35;;;;;;;38.22;25.25;;;;;;;;;;6110533;23;20017;-90
2022/05/06 08:26:25;;;;;;;40.90;24.98;;;;;;;;;;6153625;23;20463;-89
2022/05/06 08:28:57;;;;;;;36.17;24.02;;;;;;;;;;6126373;23;20088;-89
2022/05/06 08:31:52;;;;;;;38.63;24.00;;;;;;;;;;6102870;23;20020;-90
2022/05/06 08:34:56;;;;;;;44.65;26.10;;;;;;;;;;6127590;23;20017;-90
2022/05/06 08:38:07;;;;;;;39.10;25.98;;;;;;;;;;6153242;23;20021;-89
2022/05/06 08:41:02;;;;;;;35.60;24.10;;;;;;;;;;6126361;23;20017;-90
2022/05/06 08:43:52;;;;;;;39.83;25.85;;;;;;;;;;6128486;23;20044;-91
2022/05/06 09:05:31;;;;;;;30.25;20.45;;;;;;;;;;6153811;23;20546;-90
2022/05/06 09:08:18;;;;;;;28.08;19.42;;;;;;;;;;6123915;23;20100;-90
2022/05/06 09:12:40;;;;;;;31.45;20.35;;;;;;;;;;6123534;23;20041;-91
2022/05/06 09:21:25;;;;;;;25.80;18.92;;;;;;;;;;5946132;24;20020;-92
2022/05/06 09:43:19;;;;;;;21.13;14.80;;;;;;;;;;6182321;23;20099;-91
2022/05/06 10:59:06;;;;;;;7.32;4.00;;;17.30;99.90;;;;;;6125324;23;20022;-86
2022/05/06 11:15:01;;;;;;;5.80;4.13;;;;;;;;;;6177841;23;20032;-87
2022/05/06 11:18:04;;;;;;;4.95;4.43;;;18.20;99.90;;;;;;6154584;23;20117;-87
2022/05/06 11:33:32;;;;;;;2.53;2.33;;;;;;;;;;6146175;23;20021;-86
2022/05/06 11:36:03;;;;;;;3.63;2.65;;;;;;;;;;6096823;23;20017;-86
2022/05/06 11:38:37;;;;;;;5.20;3.10;;;;;;;;;;6094763;23;20017;-85
2022/05/06 11:41:21;;;;;;;4.55;2.03;;;;;;;;;;6126058;23;20095;-86
2022/05/06 11:47:34;;;;;;;3.20;2.60;;;;;;;;;;6151487;23;20032;-85
2022/05/06 11:50:11;;;;;;;3.50;2.67;;;;;;;;;;6115531;23;20092;-85
2022/05/06 11:53:01;;;;;;;3.58;1.75;;;;;;;;;;6080617;23;20125;-85
2022/05/06 11:55:35;;;;;;;2.65;2.00;;;;;;;;;;6088183;23;20737;-87
2022/05/06 11:58:01;;;;;;;6.28;2.15;;;;;;;;;;6126043;23;20044;-87
2022/05/06 12:03:07;;;;;;;1.70;1.10;;;;;;;;;;6180543;23;20029;-85
2022/05/06 12:05:38;;;;;;;4.70;1.33;;;;;;;;;;6124962;23;20063;-86
2022/05/06 12:08:26;;;;;;;1.92;1.70;;;;;;;;;;6125346;23;20021;-86
2022/05/06 12:11:01;;;;;;;3.05;2.60;;;;;;;;;;6126814;23;20013;-88
2022/05/06 12:13:56;;;;;;;5.32;2.85;;;;;;;;;;6126102;23;20073;-86
2022/05/06 12:29:46;;;;;;;3.87;2.83;;;;;;;;;;6141893;23;20016;-87
2022/05/06 13:03:39;;;;;;;2.08;1.40;;;;;;;;;;6117258;23;20536;-87
2022/05/06 13:06:08;;;;;;;3.75;1.83;;;;;;;;;;6093330;23;20092;-87
2022/05/06 13:08:36;;;;;;;3.78;1.65;;;;;;;;;;6094244;23;20028;-86
2022/05/06 13:11:02;;;;;;;3.38;2.00;;;;;;;;;;6087432;23;20343;-88
2022/05/06 13:13:28;;;;;;;5.43;2.38;;;;;;;;;;6088811;23;20024;-87
2022/05/06 13:15:56;;;;;;;2.47;1.80;;;;;;;;;;6091348;23;20097;-87
2022/05/06 13:18:22;;;;;;;5.72;1.50;;;;;;;;;;6092007;23;20088;-87
2022/05/06 13:20:49;;;;;;;5.43;1.73;;;;;;;;;;6086666;23;20018;-88
2022/05/06 13:23:15;;;;;;;3.13;1.38;;;;;;;;;;6089934;23;20060;-88
2022/05/06 13:25:41;;;;;;;5.32;1.70;;;;;;;;;;6093521;23;20020;-87
2022/05/06 13:28:10;;;;;;;1.85;1.50;;;;;;;;;;6092378;23;20051;-87
2022/05/06 13:30:36;;;;;;;3.20;1.58;;;;;;;;;;6093801;23;20171;-88
2022/05/06 13:33:03;;;;;;;4.88;2.08;;;;;;;;;;6096816;23;20510;-86
2022/05/06 13:35:32;;;;;;;4.13;1.80;;;;;;;;;;6093616;23;20087;-86
2022/05/06 13:38:02;;;;;;;4.35;2.20;;;;;;;;;;6095703;23;20060;-86
2022/05/06 13:40:28;;;;;;;4.25;2.33;;;;;;;;;;6093686;23;20473;-90
2022/05/06 13:42:54;;;;;;;4.30;2.58;;;;;;;;;;6095010;23;20044;-87
2022/05/06 13:45:20;;;;;;;3.10;1.98;;;;;;;;;;6091958;23;20103;-88
2022/05/06 13:47:46;;;;;;;7.90;2.55;;;;;;;;;;6088734;23;20021;-86
2022/05/06 13:50:13;;;;;;;2.65;1.95;;;;;;;;;;6090735;23;20097;-87
2022/05/06 13:52:42;;;;;;;2.53;1.67;;;;;;;;;;6091771;23;20026;-87
2022/05/06 13:55:08;;;;;;;7.53;2.08;;;;;;;;;;6094133;23;20545;-89
2022/05/06 14:00:48;;;;;;;3.88;2.28;;;18.70;99.90;;;;;;6120439;23;20030;-89
2022/05/06 14:06:15;;;;;;;2.10;1.40;;;23.30;62.60;;;;;;6045728;23;20070;-88
2022/05/06 14:09:01;;;;;;;3.65;1.73;;;23.20;62.10;;;;;;6098377;23;20573;-88
2022/05/06 14:15:43;;;;;;;4.07;1.92;;;22.80;65.00;;;;;;6120542;23;20092;-86
2022/05/06 14:18:21;;;;;;;6.72;1.95;;;22.60;64.50;;;;;;6123500;23;20053;-87
2022/05/06 14:20:53;;;;;;;2.38;1.60;;;22.40;63.90;;;;;;6121478;23;20021;-87
2022/05/06 14:24:03;;;;;;;4.78;1.80;;;22.40;63.40;;;;;;6093888;23;20028;-88
2022/05/06 14:27:21;;;;;;;4.32;2.10;;;22.20;63.10;;;;;;6113985;23;20036;-87
2022/05/06 14:30:19;;;;;;;4.72;2.20;;;21.90;64.40;;;;;;6100166;23;20018;-88
2022/05/06 14:32:47;;;;;;;7.00;1.95;;;21.80;65.40;;;;;;6070190;23;20021;-86
2022/05/06 14:39:42;;;;;;;;;;;;;;;;;;;;;
2022/05/06 14:42:29;;;;;;;4.47;2.20;;;22.10;65.90;;;;;;6070859;23;20084;-88
2022/05/06 14:45:38;;;;;;;7.20;1.92;;;22.00;63.40;;;;;;6095527;23;20021;-87
2022/05/06 16:09:47;;;;;;;8.63;5.43;;;;;;;;;;6173401;23;20025;-87
2022/05/06 16:12:38;;;;;;;11.88;6.55;;;;;;;;;;6145424;23;20035;-87
